Time;durP1;ratioP1;P1;durP2;ratioP2;P2;SDS_P1;SDS_P2;PMS_P1;PMS_P2;Temp;Humidity;BMP_temperature;BMP_pressure;BME280_temperature;BME280_humidity;BME280_pressure;Samples;Min_cycle;Max_cycle;Signal;HPM_P1;HPM_P2
2023/04/21 00:02:06;;;;;;;5.40;4.97;;;8.30;97.30;;;;;;4982335;28;20437;-89
2023/04/21 00:04:32;;;;;;;13.00;4.50;;;8.20;97.30;;;;;;4970794;28;20187;-89
2023/04/21 00:07:00;;;;;;;6.90;3.50;;;8.20;97.30;;;;;;4973456;28;21089;-89
2023/04/21 00:09:26;;;;;;;20.90;7.10;;;8.20;97.30;;;;;;4980320;28;20230;-90
2023/04/21 00:11:51;;;;;;;6.47;3.73;;;8.10;97.30;;;;;;4961758;28;20434;-89
2023/04/21 00:14:17;;;;;;;6.23;5.60;;;8.10;97.30;;;;;;4959294;28;20475;-89
2023/04/21 00:16:42;;;;;;;8.00;5.50;;;8.10;97.30;;;;;;4968450;28;20681;-90
2023/04/21 00:19:08;;;;;;;13.90;6.20;;;8.10;97.30;;;;;;4980375;28;20183;-89
2023/04/21 00:21:34;;;;;;;9.40;6.47;;;8.10;97.30;;;;;;4968568;28;20193;-89
2023/04/21 00:23:59;;;;;;;10.80;4.57;;;8.00;97.30;;;;;;4958553;28;20179;-89
2023/04/21 00:26:25;;;;;;;10.67;5.23;;;8.10;97.30;;;;;;4975668;28;20206;-89
2023/04/21 00:28:50;;;;;;;5.77;5.27;;;8.00;97.30;;;;;;4972081;28;20178;-89
2023/04/21 00:31:16;;;;;;;11.23;4.47;;;8.00;97.30;;;;;;4974615;28;20298;-89
2023/04/21 00:33:41;;;;;;;9.33;4.70;;;8.00;97.30;;;;;;4976319;28;20175;-90
2023/04/21 00:36:07;;;;;;;12.10;4.93;;;8.10;97.30;;;;;;4954051;28;20281;-89
2023/04/21 00:38:32;;;;;;;8.83;6.40;;;8.10;97.30;;;;;;4957259;28;20466;-89
2023/04/21 00:40:58;;;;;;;7.03;4.70;;;8.10;97.30;;;;;;4954289;28;20191;-90
2023/04/21 00:43:26;;;;;;;15.87;6.83;;;8.10;97.30;;;;;;4954292;28;20242;-90
2023/04/21 00:45:52;;;;;;;7.93;4.53;;;8.10;97.30;;;;;;4972617;28;20187;-90
2023/04/21 00:48:17;;;;;;;20.67;4.93;;;8.10;97.30;;;;;;4972871;28;20521;-90
2023/04/21 00:50:44;;;;;;;14.97;6.23;;;8.10;97.30;;;;;;4980759;28;20213;-90
2023/04/21 00:53:10;;;;;;;9.33;7.80;;;8.10;97.30;;;;;;4967735;28;20178;-89
2023/04/21 00:55:36;;;;;;;14.77;7.47;;;8.10;97.30;;;;;;4983557;28;20448;-90
2023/04/21 00:58:02;;;;;;;10.87;6.53;;;8.10;97.30;;;;;;4976597;28;20427;-89
2023/04/21 01:00:28;;;;;;;17.00;7.70;;;8.10;97.30;;;;;;4979976;28;20190;-89
2023/04/21 01:02:54;;;;;;;8.50;5.00;;;8.10;97.30;;;;;;4982954;28;20528;-90
2023/04/21 01:05:20;;;;;;;14.10;8.70;;;8.10;97.30;;;;;;4975858;28;20496;-89
2023/04/21 01:07:47;;;;;;;10.10;5.03;;;8.10;97.30;;;;;;4959971;28;20473;-90
2023/04/21 01:10:12;;;;;;;19.23;5.77;;;8.10;97.30;;;;;;4973792;28;20184;-90
2023/04/21 01:12:45;;;;;;;17.50;6.10;;;8.10;97.30;;;;;;4980668;28;20856;-90
2023/04/21 01:15:15;;;;;;;5.90;5.33;;;8.10;97.30;;;;;;4980543;28;20179;-90
2023/04/21 01:17:41;;;;;;;21.17;7.80;;;8.10;97.30;;;;;;4963690;28;20529;-89
2023/04/21 01:20:10;;;;;;;10.73;5.27;;;8.10;97.30;;;;;;4979806;28;20439;-90
2023/04/21 01:22:37;;;;;;;9.13;4.90;;;8.10;97.30;;;;;;4972860;28;20505;-89
2023/04/21 01:25:03;;;;;;;8.63;5.53;;;8.20;97.30;;;;;;4973955;28;20445;-89
2023/04/21 01:27:29;;;;;;;15.73;7.17;;;8.20;97.30;;;;;;4973767;28;20458;-90
2023/04/21 01:29:54;;;;;;;3.30;3.10;;;8.20;97.30;;;;;;4970986;28;20680;-89
2023/04/21 01:32:23;;;;;;;6.90;4.33;;;8.20;97.30;;;;;;4962951;28;20211;-90
2023/04/21 01:34:49;;;;;;;27.37;8.30;;;8.20;97.30;;;;;;4975869;28;20187;-90
2023/04/21 01:37:19;;;;;;;6.70;5.10;;;8.10;97.30;;;;;;4963087;28;20454;-89
2023/04/21 01:39:47;;;;;;;6.67;5.50;;;8.10;97.30;;;;;;4980698;28;20453;-89
2023/04/21 01:42:13;;;;;;;8.03;4.40;;;8.10;97.30;;;;;;4962418;28;20480;-91
2023/04/21 01:44:39;;;;;;;6.73;5.47;;;8.10;97.30;;;;;;4963335;28;20465;-90
2023/04/21 01:47:05;;;;;;;8.40;5.30;;;8.10;97.30;;;;;;4977659;28;20477;-89
2023/04/21 01:49:31;;;;;;;9.63;6.33;;;8.10;97.30;;;;;;4980049;28;20421;-89
2023/04/21 01:51:56;;;;;;;6.40;5.43;;;8.20;97.30;;;;;;4979476;28;20423;-90
2023/04/21 01:54:22;;;;;;;10.33;6.23;;;8.20;97.30;;;;;;4970681;28;20262;-90
2023/04/21 01:56:47;;;;;;;9.57;5.77;;;8.20;97.30;;;;;;4982023;28;20256;-90
2023/04/21 01:59:13;;;;;;;5.83;4.90;;;8.20;97.30;;;;;;4981821;28;20230;-88
2023/04/21 02:01:38;;;;;;;11.50;4.60;;;8.20;97.30;;;;;;4980524;28;20187;-89
2023/04/21 02:04:04;;;;;;;8.83;5.97;;;8.20;97.30;;;;;;4976793;28;20186;-89
2023/04/21 02:06:30;;;;;;;4.93;4.17;;;8.20;97.30;;;;;;4978368;28;20429;-90
2023/04/21 02:08:56;;;;;;;16.27;8.37;;;8.20;97.30;;;;;;4976922;28;20653;-90
2023/04/21 02:11:24;;;;;;;5.63;5.13;;;8.20;97.30;;;;;;4978310;28;20226;-90
2023/04/21 02:13:53;;;;;;;10.30;6.73;;;8.20;97.30;;;;;;4981832;28;20423;-89
2023/04/21 02:16:19;;;;;;;11.60;5.00;;;8.20;97.30;;;;;;4983848;28;20472;-89
2023/04/21 02:18:45;;;;;;;6.23;4.43;;;8.20;97.30;;;;;;4974732;28;20423;-90
2023/04/21 02:21:11;;;;;;;5.40;4.50;;;8.20;97.30;;;;;;4971247;28;20974;-88
2023/04/21 02:23:37;;;;;;;6.90;5.83;;;8.20;97.30;;;;;;4978242;28;20470;-89
2023/04/21 02:26:02;;;;;;;11.40;6.40;;;8.20;97.30;;;;;;4969934;28;20203;-88
2023/04/21 02:28:28;;;;;;;6.80;4.23;;;8.20;97.30;;;;;;4954104;28;20338;-88
2023/04/21 02:30:54;;;;;;;10.00;5.20;;;8.20;97.30;;;;;;4979159;28;20679;-87
2023/04/21 02:33:20;;;;;;;5.13;4.83;;;8.20;97.30;;;;;;4962330;28;20222;-90
2023/04/21 02:35:46;;;;;;;7.00;5.17;;;8.20;97.30;;;;;;4971300;28;20517;-88
2023/04/21 02:38:11;;;;;;;20.20;6.20;;;8.20;97.30;;;;;;4953726;28;20183;-90
2023/04/21 02:40:37;;;;;;;6.47;4.57;;;8.20;97.30;;;;;;4981712;28;20483;-89
2023/04/21 02:43:02;;;;;;;5.83;3.57;;;8.20;97.30;;;;;;4963911;28;20719;-90
2023/04/21 02:45:28;;;;;;;9.20;3.90;;;8.20;97.30;;;;;;4969735;28;20700;-91
2023/04/21 02:47:53;;;;;;;17.87;4.30;;;8.20;97.30;;;;;;4979845;28;20596;-90
2023/04/21 02:50:19;;;;;;;6.43;5.87;;;8.20;97.30;;;;;;4978257;28;20198;-90
2023/04/21 02:52:44;;;;;;;9.30;3.80;;;8.20;97.30;;;;;;4966972;28;20187;-90
2023/04/21 02:55:10;;;;;;;5.40;3.67;;;8.20;97.30;;;;;;4979365;28;20206;-89
2023/04/21 02:57:35;;;;;;;12.80;4.63;;;8.20;97.30;;;;;;4969790;28;20206;-89
2023/04/21 03:00:01;;;;;;;8.90;6.00;;;8.20;97.30;;;;;;4980977;28;20170;-88
2023/04/21 03:02:27;;;;;;;4.97;4.17;;;8.20;97.30;;;;;;4954502;28;20191;-91
2023/04/21 03:04:52;;;;;;;7.43;3.90;;;8.10;97.30;;;;;;4953638;28;20295;-90
2023/04/21 03:07:18;;;;;;;5.70;4.40;;;8.10;97.30;;;;;;4954907;28;20202;-90
2023/04/21 03:09:43;;;;;;;5.10;2.50;;;8.10;97.30;;;;;;4971083;28;20429;-90
2023/04/21 03:12:09;;;;;;;3.87;3.67;;;8.10;97.30;;;;;;4975939;28;20191;-90
2023/04/21 03:14:34;;;;;;;13.60;3.37;;;8.10;97.30;;;;;;4960496;28;20198;-91
2023/04/21 03:17:00;;;;;;;10.23;5.40;;;8.00;97.30;;;;;;4981005;28;20640;-90
2023/04/21 03:19:25;;;;;;;8.53;3.70;;;8.00;97.30;;;;;;4976434;28;20274;-91
2023/04/21 03:21:51;;;;;;;3.67;3.53;;;8.00;97.30;;;;;;4981806;28;20179;-90
2023/04/21 03:24:16;;;;;;;5.53;3.57;;;7.90;97.30;;;;;;4972542;28;20217;-89
2023/04/21 03:26:42;;;;;;;7.50;3.93;;;7.90;97.30;;;;;;4969536;28;20203;-90
2023/04/21 03:29:07;;;;;;;5.03;3.10;;;7.80;97.30;;;;;;4959010;28;20690;-89
2023/04/21 03:31:33;;;;;;;5.07;3.63;;;7.80;97.30;;;;;;4979869;28;20179;-89
2023/04/21 03:33:58;;;;;;;5.20;2.30;;;7.70;97.30;;;;;;4977662;28;20250;-90
2023/04/21 03:36:24;;;;;;;4.70;3.30;;;7.70;97.30;;;;;;4976605;28;20199;-90
2023/04/21 03:38:50;;;;;;;8.27;5.00;;;7.60;97.30;;;;;;4972412;28;20698;-90
2023/04/21 03:41:15;;;;;;;5.00;4.73;;;7.60;97.30;;;;;;4980160;28;20175;-89
2023/04/21 03:43:41;;;;;;;8.63;5.67;;;7.60;97.30;;;;;;4982917;28;20714;-90
2023/04/21 03:46:06;;;;;;;4.60;2.07;;;7.50;97.30;;;;;;4962778;28;20222;-89
2023/04/21 03:48:32;;;;;;;11.77;3.73;;;7.50;97.30;;;;;;4971780;28;20222;-89
2023/04/21 03:50:57;;;;;;;14.00;6.20;;;7.50;97.30;;;;;;4974401;28;20183;-90
2023/04/21 03:53:23;;;;;;;5.00;2.70;;;7.50;97.30;;;;;;4960070;28;20267;-88
2023/04/21 03:55:51;;;;;;;11.67;5.27;;;7.40;97.30;;;;;;4977799;28;20183;-89
2023/04/21 03:58:17;;;;;;;8.30;2.93;;;7.40;97.30;;;;;;4979687;28;20186;-89
2023/04/21 04:00:43;;;;;;;5.50;4.23;;;7.40;97.30;;;;;;4983910;28;20442;-89
2023/04/21 04:03:08;;;;;;;5.43;3.70;;;7.40;97.30;;;;;;4973312;28;20273;-90
2023/04/21 04:05:35;;;;;;;3.47;3.27;;;7.40;97.30;;;;;;4963246;28;20190;-89
2023/04/21 04:08:00;;;;;;;3.10;2.90;;;7.40;97.30;;;;;;4973502;28;20217;-89
2023/04/21 04:10:26;;;;;;;12.33;4.50;;;7.30;97.30;;;;;;4957484;28;20418;-91
2023/04/21 04:12:52;;;;;;;5.70;4.27;;;7.30;97.30;;;;;;4952204;28;20190;-89
2023/04/21 04:15:17;;;;;;;6.57;4.90;;;7.30;97.30;;;;;;4958723;28;20183;-90
2023/04/21 04:17:43;;;;;;;12.23;4.07;;;7.30;97.30;;;;;;4977618;28;20217;-89
2023/04/21 04:20:08;;;;;;;4.47;3.37;;;7.30;97.30;;;;;;4963252;28;20186;-90
2023/04/21 04:22:34;;;;;;;6.50;3.03;;;7.30;97.30;;;;;;4975867;28;20201;-88
2023/04/21 04:25:00;;;;;;;2.90;2.40;;;7.20;97.30;;;;;;4956658;28;20187;-89
2023/04/21 04:27:26;;;;;;;9.23;4.83;;;7.20;97.30;;;;;;4974111;28;20230;-89
2023/04/21 04:29:52;;;;;;;19.27;5.60;;;7.20;97.30;;;;;;4957627;28;20187;-90
2023/04/21 04:32:17;;;;;;;6.17;4.73;;;7.20;97.30;;;;;;4977099;28;20425;-91
2023/04/21 04:34:44;;;;;;;5.03;4.00;;;7.30;97.30;;;;;;4963045;28;20203;-88
2023/04/21 04:37:10;;;;;;;11.40;3.63;;;7.30;97.30;;;;;;4977283;28;20200;-88
2023/04/21 04:39:36;;;;;;;7.37;3.63;;;7.30;97.30;;;;;;4961457;28;20994;-89
2023/04/21 04:42:02;;;;;;;7.83;3.43;;;7.30;97.30;;;;;;4975277;28;20936;-89
2023/04/21 04:44:28;;;;;;;4.37;4.10;;;7.30;97.30;;;;;;4966814;28;20473;-88
2023/04/21 04:46:54;;;;;;;5.40;4.47;;;7.40;97.30;;;;;;4967068;28;20477;-87
2023/04/21 04:49:20;;;;;;;5.73;3.30;;;7.40;97.30;;;;;;4953801;28;20421;-88
2023/04/21 04:51:45;;;;;;;5.60;5.30;;;7.50;97.30;;;;;;4969540;28;20183;-89
2023/04/21 04:54:11;;;;;;;12.53;6.60;;;7.50;97.30;;;;;;4966050;28;20178;-88
2023/04/21 04:56:36;;;;;;;3.33;2.47;;;7.60;97.30;;;;;;4950324;28;20627;-90
2023/04/21 04:59:02;;;;;;;2.60;2.40;;;7.60;97.30;;;;;;4968762;28;20186;-88
2023/04/21 05:01:29;;;;;;;9.10;4.67;;;7.60;97.30;;;;;;4968426;28;20175;-90
2023/04/21 05:03:55;;;;;;;4.73;3.03;;;7.70;97.30;;;;;;4950454;28;20179;-90
2023/04/21 05:06:22;;;;;;;9.87;4.30;;;7.80;97.30;;;;;;4949884;28;20993;-90
2023/04/21 05:08:47;;;;;;;5.17;3.53;;;7.80;97.30;;;;;;4966247;28;20471;-91
2023/04/21 05:11:13;;;;;;;2.87;2.67;;;7.90;97.30;;;;;;4952847;28;20426;-89
2023/04/21 05:13:38;;;;;;;12.67;3.33;;;7.90;97.30;;;;;;4966657;28;20229;-90
2023/04/21 05:16:04;;;;;;;5.13;4.13;;;8.00;97.30;;;;;;4967083;28;20184;-90
2023/04/21 05:18:30;;;;;;;9.40;2.77;;;8.00;97.30;;;;;;4959446;28;20698;-91
2023/04/21 05:20:55;;;;;;;4.23;3.97;;;8.10;97.30;;;;;;4962178;28;20431;-90
2023/04/21 05:23:21;;;;;;;17.40;5.63;;;8.10;97.30;;;;;;4967246;28;20198;-88
2023/04/21 05:25:47;;;;;;;7.80;5.13;;;8.20;97.30;;;;;;4952010;28;20195;-90
2023/04/21 05:28:13;;;;;;;5.40;4.70;;;8.20;97.30;;;;;;4967969;28;20573;-89
2023/04/21 05:30:39;;;;;;;2.57;2.37;;;8.30;97.30;;;;;;4942478;28;20574;-90
2023/04/21 05:33:05;;;;;;;12.30;2.80;;;8.30;97.30;;;;;;4970766;28;20448;-89
2023/04/21 05:35:31;;;;;;;4.70;4.40;;;8.40;97.30;;;;;;4969370;28;20184;-90
2023/04/21 05:38:02;;;;;;;4.80;3.23;;;8.40;97.30;;;;;;4973755;28;20292;-89
2023/04/21 05:40:28;;;;;;;7.30;4.20;;;8.50;97.30;;;;;;4972893;28;20283;-90
2023/04/21 05:42:54;;;;;;;21.07;2.67;;;8.50;97.30;;;;;;4979944;28;20520;-87
2023/04/21 05:45:20;;;;;;;10.60;5.07;;;8.60;97.30;;;;;;4961642;28;20311;-89
2023/04/21 05:47:45;;;;;;;10.90;5.73;;;8.70;97.30;;;;;;4957692;28;20221;-89
2023/04/21 05:50:11;;;;;;;4.13;3.93;;;8.70;97.30;;;;;;4982476;28;20426;-88
2023/04/21 05:52:36;;;;;;;21.33;5.57;;;8.80;97.30;;;;;;4979035;28;20744;-89
2023/04/21 05:55:02;;;;;;;6.00;4.83;;;8.90;97.30;;;;;;4979377;28;20209;-90
2023/04/21 05:57:28;;;;;;;6.50;4.40;;;8.90;97.30;;;;;;4974792;28;20213;-90
2023/04/21 05:59:54;;;;;;;6.73;2.30;;;9.00;97.30;;;;;;4972043;28;20450;-90
2023/04/21 06:02:19;;;;;;;4.23;3.97;;;9.10;97.30;;;;;;4951701;28;20939;-90
2023/04/21 06:04:45;;;;;;;5.77;4.57;;;9.10;97.30;;;;;;4974539;28;20266;-90
2023/04/21 06:07:12;;;;;;;4.77;2.73;;;9.20;97.30;;;;;;4989161;28;20349;-90
2023/04/21 06:09:39;;;;;;;5.27;4.97;;;9.30;97.30;;;;;;4979398;28;20655;-88
2023/04/21 06:12:05;;;;;;;4.83;4.20;;;9.40;97.30;;;;;;4987761;28;20425;-89
2023/04/21 06:14:35;;;;;;;7.27;4.53;;;9.50;97.30;;;;;;4982458;28;20422;-90
2023/04/21 06:17:01;;;;;;;3.77;3.57;;;9.60;97.30;;;;;;4967186;28;20440;-89
2023/04/21 06:19:26;;;;;;;9.00;4.30;;;9.70;97.30;;;;;;4982590;28;20422;-91
2023/04/21 06:21:52;;;;;;;3.13;2.93;;;9.80;97.30;;;;;;4963009;28;20691;-90
2023/04/21 06:24:24;;;;;;;2.87;2.70;;;9.90;97.30;;;;;;4983618;28;20178;-90
2023/04/21 06:26:51;;;;;;;3.50;3.30;;;10.00;97.30;;;;;;4978330;28;20239;-90
2023/04/21 06:29:16;;;;;;;3.97;2.20;;;10.10;97.30;;;;;;4987580;28;20426;-89
2023/04/21 06:31:42;;;;;;;10.90;4.43;;;10.20;97.30;;;;;;4996326;28;20433;-94
2023/04/21 06:34:07;;;;;;;3.40;3.00;;;10.30;97.30;;;;;;5005231;28;20176;-92
2023/04/21 06:36:35;;;;;;;4.87;3.07;;;10.40;97.30;;;;;;4997379;28;20229;-90
2023/04/21 06:39:01;;;;;;;3.77;3.47;;;10.50;97.30;;;;;;4978596;28;20564;-90
2023/04/21 06:41:29;;;;;;;4.17;3.10;;;10.60;97.30;;;;;;4969518;28;20419;-89
2023/04/21 06:43:57;;;;;;;19.60;3.57;;;10.80;97.30;;;;;;4959756;28;20259;-89
2023/04/21 06:46:22;;;;;;;2.63;2.43;;;10.90;97.30;;;;;;4961385;28;20474;-89
2023/04/21 06:48:48;;;;;;;7.77;4.03;;;11.00;97.30;;;;;;4958539;28;21179;-89
2023/04/21 06:51:14;;;;;;;7.80;4.97;;;11.20;97.30;;;;;;4977249;28;20186;-90
2023/04/21 06:53:39;;;;;;;4.53;3.23;;;11.30;97.30;;;;;;4987174;28;20182;-90
2023/04/21 06:56:05;;;;;;;8.13;3.60;;;11.40;97.30;;;;;;4973162;28;20447;-88
2023/04/21 06:58:31;;;;;;;8.03;4.93;;;11.50;97.30;;;;;;4976120;28;20183;-90
2023/04/21 07:00:56;;;;;;;5.40;5.10;;;11.60;97.30;;;;;;4957755;28;20188;-89
2023/04/21 07:03:22;;;;;;;6.00;3.03;;;11.70;97.30;;;;;;4978999;28;20186;-89
2023/04/21 07:05:47;;;;;;;4.33;3.00;;;11.80;97.30;;;;;;4969693;28;20230;-91
2023/04/21 07:08:13;;;;;;;4.60;3.90;;;11.90;97.30;;;;;;4962033;28;20701;-89
2023/04/21 07:10:38;;;;;;;4.53;2.60;;;12.00;97.30;;;;;;4974268;28;20618;-89
2023/04/21 07:13:06;;;;;;;6.70;3.17;;;12.10;97.30;;;;;;4980297;28;20214;-90
2023/04/21 07:15:31;;;;;;;6.27;4.20;;;12.20;97.30;;;;;;4981180;28;20182;-90
2023/04/21 07:17:57;;;;;;;9.00;5.63;;;12.30;97.30;;;;;;4981041;28;20978;-89
2023/04/21 07:20:25;;;;;;;6.53;2.67;;;12.40;97.30;;;;;;4972227;28;20182;-90
2023/04/21 07:22:50;;;;;;;6.00;4.87;;;12.50;97.30;;;;;;4983306;28;20425;-89
2023/04/21 07:25:16;;;;;;;5.73;2.83;;;12.60;97.30;;;;;;4977571;28;20430;-90
2023/04/21 07:27:42;;;;;;;9.07;4.30;;;12.60;97.30;;;;;;4986288;28;20217;-89
2023/04/21 07:30:08;;;;;;;6.27;5.97;;;12.60;97.30;;;;;;4984567;28;20190;-90
2023/04/21 07:32:33;;;;;;;4.37;2.90;;;12.60;97.30;;;;;;4974325;28;20222;-91
2023/04/21 07:35:00;;;;;;;3.43;3.23;;;12.70;97.30;;;;;;4984281;28;20424;-90
2023/04/21 07:37:26;;;;;;;8.73;4.50;;;12.70;97.30;;;;;;4957169;28;20199;-90
2023/04/21 07:39:51;;;;;;;2.77;2.67;;;12.80;97.30;;;;;;4977075;28;20931;-91
2023/04/21 07:42:19;;;;;;;6.37;1.90;;;12.90;97.30;;;;;;4971295;28;20186;-91
2023/04/21 07:44:47;;;;;;;3.97;3.47;;;12.90;97.30;;;;;;4976884;28;20234;-91
2023/04/21 07:47:13;;;;;;;8.20;3.40;;;13.00;97.30;;;;;;4971229;28;21134;-92
2023/04/21 07:49:38;;;;;;;5.27;3.83;;;13.10;97.30;;;;;;4957579;28;20486;-90
2023/04/21 07:52:04;;;;;;;3.13;2.97;;;13.10;97.30;;;;;;4955978;28;20179;-90
2023/04/21 07:54:29;;;;;;;5.90;3.80;;;13.10;97.30;;;;;;4984982;28;20175;-93
2023/04/21 07:56:55;;;;;;;16.47;4.07;;;13.30;97.30;;;;;;4964974;28;20257;-90
2023/04/21 07:59:20;;;;;;;6.53;1.87;;;13.50;97.30;;;;;;4986776;28;20182;-91
2023/04/21 08:01:48;;;;;;;5.10;3.50;;;13.60;97.30;;;;;;4976153;28;20278;-92
2023/04/21 08:04:21;;;;;;;3.63;2.83;;;13.70;97.30;;;;;;4978665;28;20186;-91
2023/04/21 08:06:46;;;;;;;19.93;4.10;;;13.80;97.30;;;;;;4985070;28;20998;-90
2023/04/21 08:09:12;;;;;;;4.83;2.97;;;13.90;97.30;;;;;;4953429;28;20431;-90
2023/04/21 08:11:38;;;;;;;10.27;3.33;;;14.00;97.30;;;;;;4972654;28;20179;-91
2023/04/21 08:14:10;;;;;;;9.43;3.87;;;14.00;97.30;;;;;;4970009;28;20595;-90
2023/04/21 08:16:40;;;;;;;3.33;3.13;;;14.10;97.30;;;;;;4981580;28;20229;-89
2023/04/21 08:19:07;;;;;;;6.73;4.00;;;14.20;97.30;;;;;;4970311;28;20446;-91
2023/04/21 08:21:40;;;;;;;8.20;3.23;;;14.30;97.30;;;;;;4977211;28;20426;-90
2023/04/21 08:24:08;;;;;;;2.93;2.77;;;14.50;97.30;;;;;;4974366;28;20509;-90
2023/04/21 08:26:41;;;;;;;4.83;3.53;;;14.60;97.30;;;;;;4962257;28;20465;-90
2023/04/21 08:29:09;;;;;;;7.87;4.50;;;14.80;97.30;;;;;;4977639;28;20415;-90
2023/04/21 08:31:59;;;;;;;6.27;4.90;;;14.90;97.30;;;;;;4977482;28;20454;-90
2023/04/21 08:34:27;;;;;;;8.23;4.13;;;15.10;97.30;;;;;;4977738;28;21141;-90
2023/04/21 08:37:02;;;;;;;5.77;3.67;;;15.20;96.90;;;;;;4953436;28;20999;-91
2023/04/21 08:39:28;;;;;;;3.67;2.33;;;15.30;96.20;;;;;;4973001;28;20973;-91
2023/04/21 08:42:02;;;;;;;5.30;4.20;;;15.30;96.30;;;;;;4960503;28;20474;-90
2023/04/21 08:44:27;;;;;;;4.00;2.40;;;15.40;96.20;;;;;;4983305;28;20462;-90
2023/04/21 08:46:58;;;;;;;5.10;3.80;;;15.50;95.90;;;;;;4978033;28;20513;-91
2023/04/21 08:49:27;;;;;;;11.27;4.50;;;15.50;94.80;;;;;;4971429;28;20203;-90
2023/04/21 08:51:53;;;;;;;4.93;3.70;;;15.60;95.40;;;;;;4970946;28;20418;-91
2023/04/21 08:54:18;;;;;;;6.13;4.90;;;15.80;95.60;;;;;;4974789;28;20422;-91
2023/04/21 08:56:44;;;;;;;8.20;4.40;;;16.00;96.20;;;;;;4959065;28;20202;-90
2023/04/21 08:59:10;;;;;;;3.80;2.63;;;16.20;95.80;;;;;;4979302;28;20322;-92
2023/04/21 09:02:14;;;;;;;3.13;2.93;;;16.30;94.80;;;;;;4984740;28;20551;-90
2023/04/21 09:04:50;;;;;;;4.30;2.20;;;16.30;94.10;;;;;;4951823;28;20179;-90
2023/04/21 09:07:32;;;;;;;2.57;2.37;;;16.40;93.50;;;;;;4975673;28;20488;-91
2023/04/21 09:10:02;;;;;;;4.00;3.17;;;16.50;90.80;;;;;;4992183;28;20414;-91
2023/04/21 09:12:28;;;;;;;4.60;4.13;;;16.50;91.10;;;;;;4972349;28;20934;-90
2023/04/21 09:15:05;;;;;;;4.97;3.83;;;16.60;91.50;;;;;;4984952;28;20425;-90
2023/04/21 09:17:32;;;;;;;1.97;1.90;;;16.90;91.90;;;;;;4960199;28;20466;-90
2023/04/21 09:20:18;;;;;;;4.93;4.63;;;17.10;91.00;;;;;;4965106;28;20426;-90
2023/04/21 09:22:49;;;;;;;6.30;2.07;;;17.30;92.00;;;;;;4981236;28;20419;-92
2023/04/21 09:25:18;;;;;;;3.30;2.57;;;17.40;90.30;;;;;;4985093;28;20866;-91
2023/04/21 09:27:44;;;;;;;3.10;1.60;;;17.40;91.00;;;;;;4977439;28;20553;-91
2023/04/21 09:30:10;;;;;;;4.20;2.87;;;17.50;89.80;;;;;;4960581;28;20858;-91
2023/04/21 09:32:39;;;;;;;3.40;2.37;;;17.70;90.10;;;;;;4974502;28;20426;-91
2023/04/21 09:35:11;;;;;;;2.60;2.40;;;17.90;89.40;;;;;;4984706;28;20176;-91
2023/04/21 09:37:38;;;;;;;2.80;2.10;;;18.00;88.60;;;;;;4978660;28;20541;-91
2023/04/21 09:40:06;;;;;;;5.30;3.80;;;18.10;88.40;;;;;;4956663;28;20866;-91
2023/04/21 09:42:33;;;;;;;1.80;1.70;;;18.10;87.80;;;;;;4980310;28;20434;-91
2023/04/21 09:44:58;;;;;;;14.73;3.40;;;18.20;87.50;;;;;;4967310;28;20440;-91
2023/04/21 09:47:41;;;;;;;3.20;2.10;;;18.20;86.70;;;;;;4983255;28;20500;-89
2023/04/21 09:51:03;;;;;;;;;;;;;;;;;;;;;
2023/04/21 09:57:01;;;;;;;2.40;1.93;;;18.40;84.20;;;;;;4926476;29;20448;-90
2023/04/21 10:00:11;;;;;;;28.13;2.43;;;18.50;83.80;;;;;;4937105;29;20434;-90
2023/04/21 10:03:03;;;;;;;;;;;;;;;;;;;;;
2023/04/21 10:05:32;;;;;;;3.60;1.90;;;18.80;82.70;;;;;;4874132;29;20441;-88
2023/04/21 10:08:11;;;;;;;1.77;1.50;;;19.00;82.60;;;;;;4896000;29;20473;-90
2023/04/21 10:10:51;;;;;;;3.20;1.70;;;19.10;81.20;;;;;;4884916;29;20464;-90
2023/04/21 10:14:22;;;;;;;;;;;;;;;;;;;;;
2023/04/21 10:27:11;;;;;;;2.43;2.30;;;19.70;81.00;;;;;;5005950;28;21334;-90
2023/04/21 10:29:41;;;;;;;4.70;1.80;;;19.80;81.30;;;;;;5014541;28;20424;-92
2023/04/21 10:32:30;;;;;;;4.07;2.77;;;19.90;80.90;;;;;;5016126;28;20416;-91
2023/04/21 10:34:59;;;;;;;5.33;2.17;;;19.90;80.60;;;;;;5002674;28;20424;-91
2023/04/21 10:37:41;;;;;;;2.07;1.77;;;20.00;80.40;;;;;;5009315;28;20456;-90
2023/04/21 10:40:41;;;;;;;4.00;2.60;;;20.00;79.50;;;;;;5015803;28;20428;-93
2023/04/21 10:43:51;;;;;;;5.60;2.67;;;20.00;80.60;;;;;;5008002;28;20429;-88
2023/04/21 10:47:11;;;;;;;2.37;1.97;;;20.10;80.50;;;;;;5015447;28;20495;-92
2023/04/21 10:49:40;;;;;;;3.20;2.60;;;20.30;81.50;;;;;;4981446;28;20459;-93
2023/04/21 10:52:15;;;;;;;3.60;1.93;;;20.40;79.60;;;;;;5004977;28;20831;-91
2023/04/21 10:55:14;;;;;;;4.97;2.80;;;20.30;78.70;;;;;;5016495;28;20514;-96
2023/04/21 10:58:10;;;;;;;3.47;2.67;;;20.20;79.20;;;;;;5008030;28;20436;-92
2023/04/21 11:00:39;;;;;;;1.90;1.67;;;20.20;78.70;;;;;;4995910;28;20423;-94
2023/04/21 11:03:10;;;;;;;6.33;2.93;;;20.10;78.90;;;;;;5000512;28;20421;-90
2023/04/21 11:05:40;;;;;;;4.93;3.80;;;20.20;80.70;;;;;;5006275;28;20424;-91
2023/04/21 11:08:20;;;;;;;6.40;3.23;;;20.40;81.20;;;;;;4999356;28;20500;-94
2023/04/21 11:11:00;;;;;;;6.20;2.43;;;20.60;79.10;;;;;;5021092;28;20882;-92
2023/04/21 11:13:33;;;;;;;9.13;3.50;;;20.70;78.80;;;;;;5014502;28;20454;-92
2023/04/21 11:16:08;;;;;;;6.63;2.90;;;20.40;78.20;;;;;;4990017;28;20441;-91
2023/04/21 11:18:50;;;;;;;2.03;1.90;;;20.30;80.30;;;;;;5006949;28;20408;-92
2023/04/21 11:21:21;;;;;;;2.40;2.17;;;20.30;79.40;;;;;;5001384;28;20442;-92
2023/04/21 11:23:59;;;;;;;6.60;2.83;;;20.50;79.00;;;;;;5007425;28;20801;-93
2023/04/21 11:26:55;;;;;;;2.73;1.90;;;20.80;78.80;;;;;;5000313;28;20474;-92
2023/04/21 11:29:21;;;;;;;3.77;2.20;;;20.90;77.70;;;;;;5000080;28;21153;-89
2023/04/21 11:31:49;;;;;;;5.37;3.40;;;21.00;79.10;;;;;;5000870;28;20497;-91
2023/04/21 11:34:29;;;;;;;9.77;2.20;;;21.20;79.20;;;;;;4996983;28;20177;-91
2023/04/21 11:36:57;;;;;;;5.53;3.67;;;21.60;77.80;;;;;;4998092;28;20432;-92
2023/04/21 11:39:30;;;;;;;3.27;2.73;;;21.60;76.20;;;;;;5019341;28;20408;-91
2023/04/21 11:41:59;;;;;;;1.97;1.87;;;21.60;76.20;;;;;;5000665;28;20801;-92
2023/04/21 11:44:41;;;;;;;3.30;2.20;;;21.70;75.60;;;;;;5007713;28;20405;-91
2023/04/21 11:47:19;;;;;;;3.73;1.83;;;21.80;76.60;;;;;;5006303;28;21043;-92
2023/04/21 11:49:55;;;;;;;2.43;2.13;;;21.70;75.90;;;;;;5018227;28;20447;-91
2023/04/21 11:52:22;;;;;;;3.93;3.10;;;21.80;76.60;;;;;;4996992;28;20415;-89
2023/04/21 11:54:47;;;;;;;8.13;2.70;;;21.90;74.60;;;;;;5006237;28;20423;-93
2023/04/21 11:57:17;;;;;;;4.30;2.57;;;21.90;74.50;;;;;;4994352;28;20439;-91
2023/04/21 11:59:46;;;;;;;14.83;2.77;;;21.90;74.70;;;;;;5000922;28;20268;-93
2023/04/21 12:02:19;;;;;;;2.37;2.00;;;21.80;74.50;;;;;;5025739;28;20420;-91
2023/04/21 12:05:01;;;;;;;2.90;2.07;;;21.90;74.00;;;;;;4997944;28;20420;-94
2023/04/21 12:07:32;;;;;;;4.27;2.73;;;21.90;73.30;;;;;;5018176;28;20456;-91
2023/04/21 12:09:58;;;;;;;18.23;3.03;;;21.80;73.50;;;;;;5014348;28;20933;-89
2023/04/21 12:12:24;;;;;;;6.10;2.70;;;21.90;72.90;;;;;;5005797;28;20503;-90
2023/04/21 12:14:50;;;;;;;2.73;2.33;;;21.90;73.80;;;;;;4996899;28;20512;-91
2023/04/21 12:17:16;;;;;;;1.90;1.50;;;22.00;73.90;;;;;;5005243;28;20269;-93
2023/04/21 12:19:42;;;;;;;1.93;1.83;;;22.10;72.60;;;;;;5010255;28;20427;-90
2023/04/21 12:22:13;;;;;;;3.37;2.03;;;22.20;74.00;;;;;;5005762;28;20435;-91
2023/04/21 12:24:39;;;;;;;1.70;1.60;;;22.10;73.00;;;;;;4996664;28;20185;-91
2023/04/21 12:27:05;;;;;;;9.57;3.33;;;21.80;73.10;;;;;;4996840;28;21050;-93
2023/04/21 12:29:33;;;;;;;2.80;1.97;;;21.60;73.40;;;;;;5019501;28;20442;-92
2023/04/21 12:31:59;;;;;;;5.10;2.73;;;21.70;74.40;;;;;;5004243;28;20420;-92
2023/04/21 12:34:24;;;;;;;5.30;3.00;;;21.90;74.00;;;;;;5002528;28;20426;-88
2023/04/21 12:36:50;;;;;;;6.50;3.20;;;22.20;74.80;;;;;;5015432;28;20205;-90
2023/04/21 12:39:17;;;;;;;1.93;1.57;;;22.50;73.00;;;;;;5017849;28;20177;-88
2023/04/21 12:41:44;;;;;;;2.20;1.93;;;22.60;71.70;;;;;;5016200;28;20270;-89
2023/04/21 12:44:09;;;;;;;9.03;1.97;;;22.60;71.40;;;;;;4994432;28;20437;-89
2023/04/21 12:46:35;;;;;;;3.53;1.87;;;22.60;71.90;;;;;;4997622;28;20448;-90
2023/04/21 12:49:02;;;;;;;3.17;2.13;;;22.80;72.00;;;;;;4999684;28;20291;-88
2023/04/21 12:51:28;;;;;;;3.43;2.97;;;22.80;71.20;;;;;;5006377;28;20184;-91
2023/04/21 12:53:53;;;;;;;1.80;1.73;;;22.80;72.50;;;;;;5018398;28;20428;-87
2023/04/21 12:56:19;;;;;;;2.40;1.53;;;22.80;71.50;;;;;;4998876;28;20192;-87
2023/04/21 12:58:44;;;;;;;2.27;2.13;;;22.60;70.10;;;;;;5004905;28;20184;-89
2023/04/21 13:01:13;;;;;;;2.17;1.90;;;22.50;71.30;;;;;;5008846;28;20213;-87
2023/04/21 13:03:39;;;;;;;1.67;1.20;;;22.50;70.80;;;;;;5005093;28;20192;-87
2023/04/21 13:06:05;;;;;;;4.43;1.97;;;22.60;71.10;;;;;;4997538;28;20432;-89
2023/04/21 13:08:30;;;;;;;3.73;2.57;;;22.70;71.90;;;;;;5016373;28;20193;-89
2023/04/21 13:10:56;;;;;;;1.83;1.27;;;22.90;70.90;;;;;;4995811;28;20450;-88
2023/04/21 13:13:21;;;;;;;5.33;2.23;;;23.10;70.80;;;;;;5012086;28;20189;-87
2023/04/21 13:15:47;;;;;;;5.07;1.93;;;23.20;69.50;;;;;;4992971;28;20245;-89